THY72M LTFJ-LTAT
Flight info
| Callsign | THY72M |
|---|---|
| Flight time | 1h 10m |
| Altitude | 35000 |
| Route | LTFJ SID VICEN UT380 ASMAP UL333 BAG UL614 GOBIT UG8 GEM UT32 UREBO STAR LTAT |
| Aircraft | B738/M-S/A |
Departure
| Time | 2026-05-04 21:06 |
|---|---|
| Airport | Istanbul Sabiha Gökçen International Airport (LTFJ) |
Arrival
| Time | 2026-05-04 22:16 |
|---|---|
| Airport | Malatya Erhaç Airport (LTAT) |
| Time | Latitude | Longitude | Altitude | Speed | Heading |
|---|---|---|---|---|---|
| 2026-05-04 20:43 | 40.90297 | 29.30813 | 320 ft | 0 kts | 334° |
| 2026-05-04 20:57 | 40.90285 | 29.30821 | 319 ft | 4 kts | 332° |
| 2026-05-04 20:57 | 40.90255 | 29.30845 | 319 ft | 3 kts | 320° |
| 2026-05-04 20:57 | 40.90246 | 29.30857 | 318 ft | 2 kts | 302° |
| 2026-05-04 20:57 | 40.90241 | 29.30872 | 320 ft | 2 kts | 268° |
| 2026-05-04 20:58 | 40.90243 | 29.30887 | 319 ft | 2 kts | 248° |
| 2026-05-04 20:58 | 40.90247 | 29.30901 | 319 ft | 2 kts | 243° |
| 2026-05-04 20:58 | 40.90249 | 29.30906 | 319 ft | 0 kts | 242° |
| 2026-05-04 21:00 | 40.90241 | 29.30888 | 319 ft | 5 kts | 229° |
| 2026-05-04 21:00 | 40.90196 | 29.30887 | 318 ft | 9 kts | 160° |
| 2026-05-04 21:01 | 40.90124 | 29.30930 | 320 ft | 12 kts | 162° |
| 2026-05-04 21:01 | 40.90051 | 29.30884 | 319 ft | 13 kts | 240° |
| 2026-05-04 21:01 | 40.90004 | 29.30756 | 320 ft | 18 kts | 244° |
| 2026-05-04 21:01 | 40.89943 | 29.30591 | 320 ft | 21 kts | 243° |
| 2026-05-04 21:02 | 40.89881 | 29.30422 | 320 ft | 20 kts | 244° |
| 2026-05-04 21:02 | 40.89816 | 29.30244 | 319 ft | 24 kts | 244° |
| 2026-05-04 21:02 | 40.89741 | 29.30043 | 320 ft | 24 kts | 243° |
| 2026-05-04 21:02 | 40.89671 | 29.29851 | 320 ft | 23 kts | 244° |
| 2026-05-04 21:03 | 40.89601 | 29.29660 | 319 ft | 25 kts | 244° |
| 2026-05-04 21:03 | 40.89523 | 29.29449 | 319 ft | 25 kts | 244° |
| 2026-05-04 21:03 | 40.89443 | 29.29268 | 319 ft | 20 kts | 214° |
| 2026-05-04 21:03 | 40.89354 | 29.29281 | 318 ft | 0 kts | 154° |
| 2026-05-04 21:04 | 40.89348 | 29.29284 | 317 ft | 2 kts | 154° |
| 2026-05-04 21:04 | 40.89341 | 29.29288 | 317 ft | 1 kts | 154° |
| 2026-05-04 21:04 | 40.89325 | 29.29299 | 316 ft | 4 kts | 150° |
| 2026-05-04 21:04 | 40.89293 | 29.29354 | 315 ft | 11 kts | 106° |
| 2026-05-04 21:05 | 40.89307 | 29.29433 | 316 ft | 0 kts | 65° |
| 2026-05-04 21:05 | 40.89316 | 29.29459 | 315 ft | 18 kts | 65° |
| 2026-05-04 21:05 | 40.89492 | 29.29934 | 321 ft | 96 kts | 64° |
| 2026-05-04 21:05 | 40.89899 | 29.31005 | 331 ft | 161 kts | 59° |
| 2026-05-04 21:06 | 40.90451 | 29.32340 | 921 ft | 173 kts | 59° |
| 2026-05-04 21:06 | 40.91006 | 29.33776 | 1837 ft | 174 kts | 59° |
| 2026-05-04 21:06 | 40.91488 | 29.35257 | 2672 ft | 181 kts | 61° |
| 2026-05-04 21:06 | 40.92030 | 29.36820 | 3294 ft | 190 kts | 58° |
| 2026-05-04 21:07 | 40.92616 | 29.38445 | 3816 ft | 200 kts | 60° |
| 2026-05-04 21:07 | 40.92861 | 29.40327 | 4329 ft | 220 kts | 86° |
| 2026-05-04 21:07 | 40.92428 | 29.42356 | 4835 ft | 243 kts | 116° |
| 2026-05-04 21:07 | 40.91237 | 29.44060 | 5370 ft | 263 kts | 135° |
| 2026-05-04 21:08 | 40.89670 | 29.45396 | 6122 ft | 272 kts | 150° |
| 2026-05-04 21:08 | 40.87927 | 29.46467 | 6896 ft | 279 kts | 152° |
| 2026-05-04 21:08 | 40.86154 | 29.47535 | 7639 ft | 283 kts | 152° |
| 2026-05-04 21:08 | 40.84349 | 29.48648 | 8367 ft | 288 kts | 151° |
| 2026-05-04 21:09 | 40.82547 | 29.49771 | 9117 ft | 293 kts | 151° |
| 2026-05-04 21:09 | 40.80691 | 29.50941 | 9876 ft | 298 kts | 151° |
| 2026-05-04 21:09 | 40.78807 | 29.52140 | 10563 ft | 302 kts | 149° |
| 2026-05-04 21:09 | 40.77148 | 29.53801 | 11181 ft | 301 kts | 122° |
| 2026-05-04 21:10 | 40.76239 | 29.56256 | 11697 ft | 301 kts | 101° |
| 2026-05-04 21:10 | 40.75699 | 29.58979 | 12178 ft | 312 kts | 99° |
| 2026-05-04 21:10 | 40.75163 | 29.61815 | 12665 ft | 325 kts | 99° |
| 2026-05-04 21:10 | 40.74591 | 29.64750 | 13161 ft | 336 kts | 100° |
| 2026-05-04 21:11 | 40.73986 | 29.67789 | 13553 ft | 351 kts | 100° |
| 2026-05-04 21:11 | 40.73389 | 29.70975 | 13961 ft | 361 kts | 96° |
| 2026-05-04 21:11 | 40.73147 | 29.74263 | 14063 ft | 362 kts | 88° |
| 2026-05-04 21:11 | 40.73128 | 29.77595 | 14626 ft | 365 kts | 85° |
| 2026-05-04 21:12 | 40.73146 | 29.80938 | 15409 ft | 364 kts | 85° |
| 2026-05-04 21:12 | 40.73147 | 29.84274 | 16117 ft | 366 kts | 85° |
| 2026-05-04 21:12 | 40.73121 | 29.87656 | 16749 ft | 371 kts | 86° |
| 2026-05-04 21:12 | 40.73074 | 29.91069 | 17375 ft | 375 kts | 86° |
| 2026-05-04 21:13 | 40.73013 | 29.94519 | 18023 ft | 378 kts | 86° |
| 2026-05-04 21:13 | 40.72946 | 29.97995 | 18620 ft | 381 kts | 86° |
| 2026-05-04 21:13 | 40.72877 | 30.01450 | 19211 ft | 382 kts | 86° |
| 2026-05-04 21:13 | 40.72805 | 30.04958 | 19825 ft | 383 kts | 86° |
| 2026-05-04 21:14 | 40.72414 | 30.08468 | 20369 ft | 397 kts | 103° |
| 2026-05-04 21:14 | 40.71401 | 30.11923 | 20959 ft | 400 kts | 104° |
| 2026-05-04 21:14 | 40.70448 | 30.15348 | 21459 ft | 402 kts | 103° |
| 2026-05-04 21:14 | 40.69529 | 30.18840 | 21972 ft | 405 kts | 102° |
| 2026-05-04 21:15 | 40.68609 | 30.22372 | 22491 ft | 408 kts | 102° |
| 2026-05-04 21:15 | 40.67678 | 30.25919 | 23017 ft | 411 kts | 102° |
| 2026-05-04 21:15 | 40.66739 | 30.29489 | 23524 ft | 413 kts | 101° |
| 2026-05-04 21:15 | 40.66129 | 30.33150 | 23913 ft | 407 kts | 89° |
| 2026-05-04 21:16 | 40.65873 | 30.36850 | 24338 ft | 407 kts | 88° |
| 2026-05-04 21:16 | 40.65632 | 30.40572 | 24726 ft | 409 kts | 88° |
| 2026-05-04 21:16 | 40.65368 | 30.44318 | 25076 ft | 413 kts | 88° |
| 2026-05-04 21:16 | 40.65078 | 30.48102 | 25452 ft | 415 kts | 89° |
| 2026-05-04 21:17 | 40.64786 | 30.51698 | 25819 ft | 418 kts | 89° |
| 2026-05-04 21:17 | 40.64467 | 30.55516 | 26204 ft | 420 kts | 89° |
| 2026-05-04 21:17 | 40.64142 | 30.59353 | 26564 ft | 423 kts | 89° |
| 2026-05-04 21:17 | 40.63815 | 30.63209 | 26918 ft | 425 kts | 89° |
| 2026-05-04 21:18 | 40.63490 | 30.67033 | 27260 ft | 427 kts | 89° |
| 2026-05-04 21:18 | 40.63137 | 30.70978 | 27560 ft | 431 kts | 91° |
| 2026-05-04 21:18 | 40.62508 | 30.74836 | 27853 ft | 441 kts | 98° |
| 2026-05-04 21:18 | 40.61644 | 30.78727 | 28207 ft | 444 kts | 99° |
| 2026-05-04 21:19 | 40.60769 | 30.82635 | 28518 ft | 445 kts | 99° |
| 2026-05-04 21:19 | 40.59904 | 30.86561 | 28804 ft | 447 kts | 98° |
| 2026-05-04 21:19 | 40.59053 | 30.90496 | 29102 ft | 448 kts | 98° |
| 2026-05-04 21:19 | 40.58207 | 30.94451 | 29350 ft | 450 kts | 98° |
| 2026-05-04 21:20 | 40.57360 | 30.98427 | 29681 ft | 452 kts | 98° |
| 2026-05-04 21:20 | 40.56514 | 31.02403 | 30099 ft | 450 kts | 98° |
| 2026-05-04 21:20 | 40.55668 | 31.06364 | 30549 ft | 448 kts | 98° |
| 2026-05-04 21:20 | 40.54825 | 31.10306 | 30925 ft | 447 kts | 98° |
| 2026-05-04 21:21 | 40.53996 | 31.14186 | 31168 ft | 448 kts | 98° |
| 2026-05-04 21:21 | 40.53151 | 31.18130 | 31443 ft | 448 kts | 98° |
| 2026-05-04 21:21 | 40.52300 | 31.22084 | 31769 ft | 447 kts | 99° |
| 2026-05-04 21:21 | 40.51451 | 31.26012 | 32081 ft | 447 kts | 99° |
| 2026-05-04 21:22 | 40.50599 | 31.29949 | 32369 ft | 448 kts | 99° |
| 2026-05-04 21:22 | 40.49745 | 31.33890 | 32655 ft | 448 kts | 99° |
| 2026-05-04 21:22 | 40.48890 | 31.37828 | 32954 ft | 448 kts | 99° |
| 2026-05-04 21:22 | 40.48037 | 31.41758 | 33237 ft | 448 kts | 99° |
| 2026-05-04 21:23 | 40.47181 | 31.45692 | 33506 ft | 448 kts | 100° |
| 2026-05-04 21:23 | 40.46321 | 31.49634 | 33729 ft | 449 kts | 100° |
| 2026-05-04 21:23 | 40.45459 | 31.53585 | 33926 ft | 450 kts | 100° |
| 2026-05-04 21:23 | 40.44592 | 31.57545 | 34146 ft | 450 kts | 100° |
| 2026-05-04 21:24 | 40.43726 | 31.61500 | 34400 ft | 450 kts | 101° |
| 2026-05-04 21:24 | 40.42871 | 31.65398 | 34574 ft | 451 kts | 101° |
| 2026-05-04 21:24 | 40.41998 | 31.69371 | 34739 ft | 452 kts | 101° |
| 2026-05-04 21:24 | 40.41125 | 31.73341 | 34935 ft | 452 kts | 101° |
| 2026-05-04 21:25 | 40.39368 | 31.81308 | 34984 ft | 455 kts | 102° |
| 2026-05-04 21:25 | 40.37608 | 31.89256 | 34978 ft | 451 kts | 102° |
| 2026-05-04 21:26 | 40.35864 | 31.97097 | 34988 ft | 449 kts | 102° |
| 2026-05-04 21:26 | 40.34091 | 32.04991 | 34976 ft | 448 kts | 102° |
| 2026-05-04 21:27 | 40.32060 | 32.12658 | 34983 ft | 451 kts | 111° |
| 2026-05-04 21:27 | 40.29326 | 32.20075 | 34982 ft | 453 kts | 112° |
| 2026-05-04 21:28 | 40.26562 | 32.27492 | 34979 ft | 454 kts | 112° |
| 2026-05-04 21:28 | 40.23829 | 32.34961 | 34980 ft | 456 kts | 112° |
| 2026-05-04 21:29 | 40.21095 | 32.42485 | 34970 ft | 458 kts | 112° |
| 2026-05-04 21:29 | 40.18344 | 32.50047 | 34969 ft | 461 kts | 112° |
| 2026-05-04 21:30 | 40.15574 | 32.57632 | 34962 ft | 463 kts | 112° |
| 2026-05-04 21:30 | 40.12790 | 32.65233 | 34955 ft | 464 kts | 113° |
| 2026-05-04 21:31 | 40.08610 | 32.76617 | 34945 ft | 465 kts | 113° |
| 2026-05-04 21:32 | 40.05936 | 32.84293 | 34942 ft | 464 kts | 109° |
| 2026-05-04 21:32 | 40.03646 | 32.92148 | 34945 ft | 463 kts | 108° |
| 2026-05-04 21:33 | 40.01390 | 33.00012 | 34943 ft | 462 kts | 108° |
| 2026-05-04 21:33 | 39.99103 | 33.07837 | 34934 ft | 462 kts | 109° |
| 2026-05-04 21:34 | 39.96791 | 33.15656 | 34935 ft | 461 kts | 109° |
| 2026-05-04 21:34 | 39.94493 | 33.23391 | 34934 ft | 461 kts | 109° |
| 2026-05-04 21:35 | 39.92175 | 33.31175 | 34930 ft | 460 kts | 109° |
| 2026-05-04 21:35 | 39.89854 | 33.38953 | 34923 ft | 460 kts | 110° |
| 2026-05-04 21:36 | 39.87527 | 33.46726 | 34921 ft | 461 kts | 110° |
| 2026-05-04 21:36 | 39.85196 | 33.54497 | 34914 ft | 461 kts | 110° |
| 2026-05-04 21:37 | 39.82897 | 33.62292 | 34912 ft | 461 kts | 106° |
| 2026-05-04 21:37 | 39.81268 | 33.70301 | 34906 ft | 461 kts | 102° |
| 2026-05-04 21:38 | 39.79708 | 33.78397 | 34908 ft | 462 kts | 103° |
| 2026-05-04 21:38 | 39.78067 | 33.86492 | 34900 ft | 463 kts | 104° |
| 2026-05-04 21:39 | 39.76155 | 33.94487 | 34899 ft | 464 kts | 109° |
| 2026-05-04 21:39 | 39.73861 | 34.02342 | 34892 ft | 465 kts | 110° |
| 2026-05-04 21:40 | 39.71564 | 34.10134 | 34897 ft | 465 kts | 110° |
| 2026-05-04 21:40 | 39.69295 | 34.18001 | 34886 ft | 465 kts | 110° |
| 2026-05-04 21:41 | 39.67042 | 34.25888 | 34885 ft | 466 kts | 110° |
| 2026-05-04 21:41 | 39.64787 | 34.33778 | 34882 ft | 466 kts | 110° |
| 2026-05-04 21:42 | 39.62908 | 34.40326 | 34879 ft | 466 kts | 110° |
| 2026-05-04 21:42 | 39.60256 | 34.49535 | 34876 ft | 466 kts | 110° |
| 2026-05-04 21:43 | 39.57991 | 34.57373 | 34866 ft | 466 kts | 110° |
| 2026-05-04 21:43 | 39.55707 | 34.65256 | 34872 ft | 466 kts | 110° |
| 2026-05-04 21:44 | 39.53806 | 34.71796 | 34869 ft | 466 kts | 111° |
| 2026-05-04 21:44 | 39.51513 | 34.79666 | 34869 ft | 467 kts | 111° |
| 2026-05-04 21:45 | 39.49216 | 34.87526 | 34863 ft | 467 kts | 111° |
| 2026-05-04 21:45 | 39.46912 | 34.95387 | 34864 ft | 467 kts | 111° |
| 2026-05-04 21:46 | 39.44601 | 35.03249 | 34865 ft | 467 kts | 111° |
| 2026-05-04 21:46 | 39.42301 | 35.11054 | 34856 ft | 467 kts | 111° |
| 2026-05-04 21:47 | 39.39978 | 35.18916 | 34865 ft | 467 kts | 111° |
| 2026-05-04 21:47 | 39.37688 | 35.26788 | 34865 ft | 467 kts | 111° |
| 2026-05-04 21:48 | 39.35431 | 35.34605 | 34861 ft | 467 kts | 111° |
| 2026-05-04 21:48 | 39.33150 | 35.42475 | 34864 ft | 467 kts | 111° |
| 2026-05-04 21:49 | 39.30860 | 35.50335 | 34864 ft | 467 kts | 111° |
| 2026-05-04 21:49 | 39.28564 | 35.58186 | 34870 ft | 467 kts | 112° |
| 2026-05-04 21:50 | 39.26265 | 35.66027 | 34873 ft | 467 kts | 112° |
| 2026-05-04 21:50 | 39.23952 | 35.73892 | 34874 ft | 467 kts | 112° |
| 2026-05-04 21:51 | 39.21640 | 35.81731 | 34878 ft | 467 kts | 112° |
| 2026-05-04 21:51 | 39.19342 | 35.89504 | 34885 ft | 467 kts | 112° |
| 2026-05-04 21:52 | 39.17020 | 35.97335 | 34887 ft | 467 kts | 112° |
| 2026-05-04 21:52 | 39.14672 | 36.05175 | 34886 ft | 468 kts | 114° |
| 2026-05-04 21:53 | 39.12211 | 36.12871 | 34889 ft | 467 kts | 115° |
| 2026-05-04 21:53 | 39.09683 | 36.20621 | 34611 ft | 471 kts | 115° |
| 2026-05-04 21:53 | 39.08422 | 36.24500 | 34399 ft | 468 kts | 115° |
| 2026-05-04 21:54 | 39.07170 | 36.28362 | 34162 ft | 466 kts | 115° |
| 2026-05-04 21:54 | 39.05922 | 36.32218 | 33459 ft | 467 kts | 115° |
| 2026-05-04 21:54 | 39.04675 | 36.36069 | 32802 ft | 466 kts | 115° |
| 2026-05-04 21:54 | 39.03424 | 36.39929 | 32100 ft | 467 kts | 115° |
| 2026-05-04 21:55 | 39.02173 | 36.43784 | 31405 ft | 467 kts | 115° |
| 2026-05-04 21:55 | 39.00922 | 36.47633 | 30691 ft | 468 kts | 115° |
| 2026-05-04 21:55 | 38.99667 | 36.51489 | 30099 ft | 466 kts | 115° |
| 2026-05-04 21:55 | 38.98421 | 36.55316 | 29505 ft | 461 kts | 115° |
| 2026-05-04 21:56 | 38.97190 | 36.59091 | 28934 ft | 455 kts | 115° |
| 2026-05-04 21:56 | 38.95973 | 36.62817 | 28405 ft | 449 kts | 115° |
| 2026-05-04 21:56 | 38.94773 | 36.66483 | 27888 ft | 443 kts | 115° |
| 2026-05-04 21:56 | 38.93602 | 36.70059 | 27379 ft | 437 kts | 115° |
| 2026-05-04 21:57 | 38.92428 | 36.73638 | 26862 ft | 432 kts | 115° |
| 2026-05-04 21:57 | 38.91265 | 36.77176 | 26357 ft | 428 kts | 115° |
| 2026-05-04 21:57 | 38.90112 | 36.80681 | 25857 ft | 423 kts | 116° |
| 2026-05-04 21:57 | 38.88973 | 36.84141 | 25368 ft | 419 kts | 116° |
| 2026-05-04 21:58 | 38.87842 | 36.87571 | 24866 ft | 416 kts | 116° |
| 2026-05-04 21:58 | 38.86715 | 36.90985 | 24383 ft | 412 kts | 116° |
| 2026-05-04 21:58 | 38.85598 | 36.94363 | 23917 ft | 409 kts | 116° |
| 2026-05-04 21:58 | 38.84487 | 36.97721 | 23422 ft | 407 kts | 116° |
| 2026-05-04 21:59 | 38.83383 | 37.01055 | 22853 ft | 405 kts | 117° |
| 2026-05-04 21:59 | 38.82285 | 37.04368 | 22351 ft | 400 kts | 116° |
| 2026-05-04 21:59 | 38.81198 | 37.07642 | 21853 ft | 397 kts | 116° |
| 2026-05-04 21:59 | 38.80136 | 37.10836 | 21398 ft | 392 kts | 116° |
| 2026-05-04 22:00 | 38.79209 | 37.14123 | 20905 ft | 392 kts | 108° |
| 2026-05-04 22:00 | 38.78751 | 37.17561 | 20462 ft | 392 kts | 97° |
| 2026-05-04 22:00 | 38.78648 | 37.21044 | 19999 ft | 390 kts | 95° |
| 2026-05-04 22:00 | 38.78565 | 37.24504 | 19538 ft | 387 kts | 95° |
| 2026-05-04 22:01 | 38.78473 | 37.27933 | 19077 ft | 383 kts | 95° |
| 2026-05-04 22:01 | 38.78371 | 37.31349 | 18636 ft | 380 kts | 95° |
| 2026-05-04 22:01 | 38.78262 | 37.34731 | 18182 ft | 378 kts | 95° |
| 2026-05-04 22:01 | 38.78150 | 37.38040 | 17676 ft | 375 kts | 95° |
| 2026-05-04 22:02 | 38.78034 | 37.41370 | 17193 ft | 372 kts | 95° |
| 2026-05-04 22:02 | 38.77919 | 37.44670 | 16750 ft | 368 kts | 95° |
| 2026-05-04 22:02 | 38.77804 | 37.47931 | 16310 ft | 364 kts | 95° |
| 2026-05-04 22:02 | 38.77690 | 37.51156 | 15858 ft | 361 kts | 95° |
| 2026-05-04 22:03 | 38.77575 | 37.54363 | 15418 ft | 358 kts | 95° |
| 2026-05-04 22:03 | 38.77461 | 37.57541 | 14987 ft | 356 kts | 95° |
| 2026-05-04 22:03 | 38.77345 | 37.60703 | 14630 ft | 353 kts | 95° |
| 2026-05-04 22:03 | 38.77231 | 37.63798 | 14302 ft | 351 kts | 94° |
| 2026-05-04 22:04 | 38.77116 | 37.66917 | 13974 ft | 349 kts | 95° |
| 2026-05-04 22:04 | 38.77000 | 37.70021 | 13632 ft | 350 kts | 94° |
| 2026-05-04 22:04 | 38.76883 | 37.73149 | 13269 ft | 351 kts | 95° |
| 2026-05-04 22:04 | 38.76765 | 37.76277 | 12910 ft | 350 kts | 95° |
| 2026-05-04 22:05 | 38.76647 | 37.79370 | 12566 ft | 346 kts | 95° |
| 2026-05-04 22:05 | 38.76530 | 37.82419 | 12231 ft | 340 kts | 95° |
| 2026-05-04 22:05 | 38.76415 | 37.85421 | 11911 ft | 334 kts | 95° |
| 2026-05-04 22:05 | 38.76301 | 37.88370 | 11476 ft | 328 kts | 95° |
| 2026-05-04 22:06 | 38.76191 | 37.91208 | 11278 ft | 312 kts | 95° |
| 2026-05-04 22:06 | 38.76085 | 37.93925 | 11019 ft | 299 kts | 95° |
| 2026-05-04 22:06 | 38.76012 | 37.95709 | 10810 ft | 293 kts | 95° |
| 2026-05-04 22:06 | 38.75912 | 37.98266 | 10551 ft | 285 kts | 95° |
| 2026-05-04 22:07 | 38.75811 | 38.00790 | 10342 ft | 281 kts | 95° |
| 2026-05-04 22:07 | 38.75710 | 38.03283 | 10115 ft | 279 kts | 96° |
| 2026-05-04 22:07 | 38.75610 | 38.05766 | 9855 ft | 277 kts | 96° |
| 2026-05-04 22:07 | 38.75511 | 38.08219 | 9599 ft | 276 kts | 96° |
| 2026-05-04 22:08 | 38.75410 | 38.10673 | 9318 ft | 275 kts | 96° |
| 2026-05-04 22:08 | 38.75299 | 38.13110 | 9040 ft | 272 kts | 99° |
| 2026-05-04 22:08 | 38.74696 | 38.15324 | 8845 ft | 261 kts | 124° |
| 2026-05-04 22:08 | 38.73694 | 38.17246 | 8573 ft | 259 kts | 124° |
| 2026-05-04 22:09 | 38.72741 | 38.19198 | 8300 ft | 256 kts | 123° |
| 2026-05-04 22:09 | 38.71821 | 38.21113 | 8034 ft | 248 kts | 123° |
| 2026-05-04 22:09 | 38.70941 | 38.22943 | 7798 ft | 240 kts | 123° |
| 2026-05-04 22:09 | 38.70074 | 38.24738 | 7589 ft | 236 kts | 123° |
| 2026-05-04 22:10 | 38.69054 | 38.26342 | 7340 ft | 231 kts | 147° |
| 2026-05-04 22:10 | 38.67576 | 38.26981 | 7186 ft | 224 kts | 178° |
| 2026-05-04 22:10 | 38.66078 | 38.26639 | 6993 ft | 217 kts | 204° |
| 2026-05-04 22:10 | 38.64789 | 38.25689 | 6782 ft | 211 kts | 209° |
| 2026-05-04 22:11 | 38.63538 | 38.24750 | 6557 ft | 205 kts | 208° |
| 2026-05-04 22:11 | 38.62342 | 38.23829 | 6379 ft | 197 kts | 209° |
| 2026-05-04 22:11 | 38.61180 | 38.22911 | 6182 ft | 195 kts | 210° |
| 2026-05-04 22:11 | 38.60026 | 38.21997 | 5989 ft | 194 kts | 210° |
| 2026-05-04 22:12 | 38.58876 | 38.21093 | 5788 ft | 194 kts | 210° |
| 2026-05-04 22:12 | 38.57730 | 38.20197 | 5609 ft | 193 kts | 210° |
| 2026-05-04 22:12 | 38.56575 | 38.19295 | 5508 ft | 193 kts | 210° |
| 2026-05-04 22:12 | 38.55440 | 38.18407 | 5295 ft | 189 kts | 210° |
| 2026-05-04 22:13 | 38.54332 | 38.17541 | 5043 ft | 185 kts | 210° |
| 2026-05-04 22:13 | 38.53262 | 38.16704 | 4811 ft | 174 kts | 210° |
| 2026-05-04 22:13 | 38.52271 | 38.15929 | 4610 ft | 161 kts | 210° |
| 2026-05-04 22:13 | 38.51352 | 38.15211 | 4387 ft | 150 kts | 210° |
| 2026-05-04 22:14 | 38.50491 | 38.14538 | 4192 ft | 146 kts | 211° |
| 2026-05-04 22:14 | 38.49617 | 38.13855 | 3966 ft | 149 kts | 211° |
| 2026-05-04 22:14 | 38.48727 | 38.13159 | 3733 ft | 150 kts | 211° |
| 2026-05-04 22:14 | 38.47847 | 38.12470 | 3509 ft | 151 kts | 211° |
| 2026-05-04 22:15 | 38.46953 | 38.11771 | 3300 ft | 150 kts | 211° |
| 2026-05-04 22:15 | 38.46064 | 38.11076 | 3095 ft | 150 kts | 211° |
| 2026-05-04 22:15 | 38.45174 | 38.10384 | 2904 ft | 148 kts | 212° |
| 2026-05-04 22:15 | 38.44306 | 38.09696 | 2782 ft | 141 kts | 209° |
| 2026-05-04 22:16 | 38.43610 | 38.09160 | 2793 ft | 88 kts | 211° |
| 2026-05-04 22:16 | 38.43270 | 38.08886 | 2799 ft | 30 kts | 217° |
| 2026-05-04 22:16 | 38.43161 | 38.08785 | 2810 ft | 11 kts | 201° |
| 2026-05-04 22:16 | 38.43149 | 38.08784 | 2811 ft | 1 kts | 173° |
| 2026-05-04 22:17 | 38.43139 | 38.08825 | 2809 ft | 7 kts | 60° |
| 2026-05-04 22:17 | 38.43213 | 38.08852 | 2805 ft | 14 kts | 19° |
| 2026-05-04 22:17 | 38.43314 | 38.08927 | 2805 ft | 20 kts | 31° |
| 2026-05-04 22:17 | 38.43447 | 38.09031 | 2800 ft | 25 kts | 31° |
| 2026-05-04 22:18 | 38.43599 | 38.09148 | 2792 ft | 26 kts | 31° |
| 2026-05-04 22:18 | 38.43758 | 38.09271 | 2791 ft | 28 kts | 31° |
| 2026-05-04 22:18 | 38.43939 | 38.09413 | 2786 ft | 32 kts | 31° |
| 2026-05-04 22:18 | 38.44130 | 38.09561 | 2779 ft | 32 kts | 31° |
| 2026-05-04 22:19 | 38.44316 | 38.09705 | 2778 ft | 31 kts | 31° |
| 2026-05-04 22:19 | 38.44490 | 38.09841 | 2776 ft | 26 kts | 31° |
| 2026-05-04 22:19 | 38.44551 | 38.09887 | 2771 ft | 2 kts | 31° |
| 2026-05-04 22:19 | 38.44560 | 38.09914 | 2772 ft | 5 kts | 90° |
| 2026-05-04 22:20 | 38.44528 | 38.09961 | 2773 ft | 9 kts | 147° |
| 2026-05-04 22:20 | 38.44480 | 38.09997 | 2774 ft | 8 kts | 149° |
| 2026-05-04 22:20 | 38.44434 | 38.10031 | 2774 ft | 8 kts | 150° |
| 2026-05-04 22:20 | 38.44389 | 38.10064 | 2775 ft | 7 kts | 150° |
| 2026-05-04 22:21 | 38.44345 | 38.10097 | 2776 ft | 8 kts | 146° |
| 2026-05-04 22:21 | 38.44289 | 38.10142 | 2777 ft | 12 kts | 149° |
| 2026-05-04 22:21 | 38.44210 | 38.10202 | 2778 ft | 14 kts | 149° |
| 2026-05-04 22:21 | 38.44128 | 38.10263 | 2779 ft | 13 kts | 149° |
| 2026-05-04 22:22 | 38.44050 | 38.10324 | 2780 ft | 13 kts | 139° |
| 2026-05-04 22:22 | 38.44008 | 38.10412 | 2780 ft | 6 kts | 121° |
| 2026-05-04 22:22 | 38.44005 | 38.10419 | 2780 ft | 0 kts | 121° |